createdAt,value
2023-04-27T00:01:04.769Z,2
2023-04-27T00:02:48.534Z,2
2023-04-27T00:04:32.190Z,2
2023-04-27T00:06:15.886Z,3
2023-04-27T00:07:59.579Z,2
2023-04-27T00:09:43.309Z,2
2023-04-27T00:11:26.989Z,2
2023-04-27T00:13:10.693Z,2
2023-04-27T00:14:54.386Z,2
2023-04-27T00:16:38.101Z,3
2023-04-27T00:18:21.786Z,2
2023-04-27T00:20:05.498Z,2
2023-04-27T00:21:49.197Z,2
2023-04-27T00:23:32.948Z,1
2023-04-27T00:25:16.609Z,2
2023-04-27T00:27:00.298Z,2
2023-04-27T00:28:44.002Z,2
2023-04-27T00:30:27.711Z,2
2023-04-27T00:32:11.405Z,2
2023-04-27T00:33:55.116Z,2
2023-04-27T00:35:38.808Z,2
2023-04-27T00:37:22.526Z,2
2023-04-27T00:39:06.228Z,2
2023-04-27T00:40:49.928Z,2
2023-04-27T00:42:33.651Z,2
2023-04-27T00:44:17.330Z,1
2023-04-27T00:46:01.033Z,2
2023-04-27T00:47:44.730Z,3
2023-04-27T00:49:28.443Z,2
2023-04-27T00:51:12.159Z,2
2023-04-27T00:52:55.845Z,2
2023-04-27T00:54:39.544Z,3
2023-04-27T00:56:23.256Z,3
2023-04-27T00:58:06.948Z,2
2023-04-27T00:59:50.644Z,2
2023-04-27T01:01:34.347Z,2
2023-04-27T01:03:18.062Z,2
2023-04-27T01:05:01.770Z,2
2023-04-27T01:06:45.464Z,2
2023-04-27T01:08:29.156Z,2
2023-04-27T01:10:12.880Z,2
2023-04-27T01:11:56.575Z,1
2023-04-27T01:13:40.265Z,2
2023-04-27T01:15:23.967Z,2
2023-04-27T01:17:07.729Z,2
2023-04-27T01:18:51.393Z,1
2023-04-27T01:20:35.077Z,2
2023-04-27T01:22:18.773Z,2
2023-04-27T01:24:02.479Z,2
2023-04-27T01:25:46.217Z,2
2023-04-27T01:27:29.871Z,2
2023-04-27T01:29:13.577Z,2
2023-04-27T01:30:57.298Z,2
2023-04-27T01:32:40.991Z,2
2023-04-27T01:34:24.698Z,2
2023-04-27T01:36:08.392Z,3
2023-04-27T01:37:52.103Z,3
2023-04-27T01:39:35.829Z,2
2023-04-27T01:41:19.509Z,2
2023-04-27T01:43:03.222Z,2
2023-04-27T01:44:46.920Z,2
2023-04-27T01:46:30.616Z,2
2023-04-27T01:48:14.323Z,2
2023-04-27T01:49:58.019Z,2
2023-04-27T01:51:41.748Z,2
2023-04-27T01:53:25.432Z,2
2023-04-27T01:55:09.124Z,3
2023-04-27T01:56:52.830Z,2
2023-04-27T01:58:36.549Z,2
2023-04-27T02:00:20.229Z,1
2023-04-27T02:02:03.939Z,1
2023-04-27T02:03:47.642Z,2
2023-04-27T02:05:31.343Z,2
2023-04-27T02:07:15.046Z,2
2023-04-27T02:08:58.733Z,2
2023-04-27T02:10:42.453Z,2
2023-04-27T02:12:26.152Z,2
2023-04-27T02:14:09.855Z,2
2023-04-27T02:15:53.555Z,2
2023-04-27T02:17:37.250Z,2
2023-04-27T02:19:20.959Z,2
2023-04-27T02:21:04.659Z,1
2023-04-27T02:22:48.349Z,2
2023-04-27T02:24:32.064Z,2
2023-04-27T02:26:15.773Z,2
2023-04-27T02:27:59.462Z,2
2023-04-27T02:29:43.185Z,2
2023-04-27T02:31:26.872Z,2
2023-04-27T02:33:10.579Z,2
2023-04-27T02:34:54.282Z,2
2023-04-27T02:36:37.988Z,2
2023-04-27T02:38:21.687Z,2
2023-04-27T02:40:05.389Z,2
2023-04-27T02:41:49.088Z,2
2023-04-27T02:43:32.793Z,1
2023-04-27T02:45:16.496Z,2
2023-04-27T02:47:00.201Z,2
2023-04-27T02:48:43.897Z,2
2023-04-27T02:50:27.604Z,1
2023-04-27T02:52:11.312Z,3
2023-04-27T02:53:55.019Z,2
2023-04-27T02:55:38.710Z,2
2023-04-27T02:57:22.410Z,2
2023-04-27T02:59:06.113Z,2
2023-04-27T03:00:49.827Z,1
2023-04-27T03:02:33.517Z,2
2023-04-27T03:04:17.218Z,2
2023-04-27T03:06:00.923Z,2
2023-04-27T03:09:28.319Z,1
2023-04-27T03:11:12.039Z,3
2023-04-27T03:12:55.736Z,3
2023-04-27T03:14:39.441Z,1
2023-04-27T03:16:23.139Z,2
2023-04-27T03:18:06.842Z,2
2023-04-27T03:19:50.546Z,2
2023-04-27T03:21:34.250Z,2
2023-04-27T03:23:17.944Z,2
2023-04-27T03:25:01.652Z,3
2023-04-27T03:26:45.363Z,2
2023-04-27T03:28:29.068Z,3
2023-04-27T03:30:12.752Z,2
2023-04-27T03:31:56.464Z,3
2023-04-27T03:33:40.166Z,2
2023-04-27T03:35:23.873Z,2
2023-04-27T03:37:07.569Z,1
2023-04-27T03:38:51.267Z,2
2023-04-27T03:40:34.976Z,3
2023-04-27T03:42:18.681Z,2
2023-04-27T03:44:02.380Z,2
2023-04-27T03:45:46.084Z,2
2023-04-27T03:47:29.778Z,3
2023-04-27T03:49:13.495Z,3
2023-04-27T03:50:57.193Z,2
2023-04-27T03:52:40.899Z,4
2023-04-27T03:54:24.586Z,3
2023-04-27T03:56:08.284Z,5
2023-04-27T03:57:52.006Z,5
2023-04-27T03:59:35.703Z,6
2023-04-27T04:01:19.399Z,7
2023-04-27T04:03:03.110Z,8
2023-04-27T04:04:46.810Z,9
2023-04-27T04:06:30.512Z,12
2023-04-27T04:08:14.214Z,15
2023-04-27T04:09:57.913Z,17
2023-04-27T04:11:41.623Z,19
2023-04-27T04:13:25.316Z,21
2023-04-27T04:15:09.022Z,24
2023-04-27T04:16:52.726Z,28
2023-04-27T04:18:36.429Z,32
2023-04-27T04:20:20.132Z,37
2023-04-27T04:22:03.836Z,41
2023-04-27T04:23:47.538Z,46
2023-04-27T04:25:31.241Z,52
2023-04-27T04:27:14.947Z,58
2023-04-27T04:28:58.630Z,63
2023-04-27T04:30:42.332Z,70
2023-04-27T04:32:26.054Z,77
2023-04-27T04:34:09.751Z,84
2023-04-27T04:35:53.453Z,92
2023-04-27T04:37:37.152Z,99
2023-04-27T04:39:20.859Z,106
2023-04-27T04:41:04.560Z,115
2023-04-27T04:42:48.260Z,126
2023-04-27T04:44:31.966Z,137
2023-04-27T04:46:15.675Z,148
2023-04-27T04:47:59.371Z,159
2023-04-27T04:49:43.080Z,172
2023-04-27T04:51:26.769Z,184
2023-04-27T04:53:10.475Z,198
2023-04-27T04:54:54.201Z,212
2023-04-27T04:56:37.896Z,224
2023-04-27T04:58:21.582Z,239
2023-04-27T05:00:05.292Z,254
2023-04-27T05:01:48.985Z,266
2023-04-27T05:03:32.694Z,277
2023-04-27T05:05:16.417Z,292
2023-04-27T05:07:00.105Z,309
2023-04-27T05:08:43.811Z,326
2023-04-27T05:10:27.490Z,341
2023-04-27T05:12:11.210Z,357
2023-04-27T05:13:54.915Z,375
2023-04-27T05:15:39.209Z,391
2023-04-27T05:17:22.316Z,407
2023-04-27T05:19:06.029Z,420
2023-04-27T05:20:49.716Z,433
2023-04-27T05:22:33.421Z,447
2023-04-27T05:24:17.119Z,459
2023-04-27T05:26:00.852Z,473
2023-04-27T05:27:44.569Z,490
2023-04-27T05:29:28.218Z,505
2023-04-27T05:31:11.928Z,520
2023-04-27T05:32:55.644Z,532
2023-04-27T05:34:39.342Z,547
2023-04-27T05:36:23.131Z,569
2023-04-27T05:38:06.738Z,591
2023-04-27T05:39:50.473Z,604
2023-04-27T05:41:34.161Z,613
2023-04-27T05:43:17.863Z,622
2023-04-27T05:45:01.554Z,632
2023-04-27T05:46:45.257Z,650
2023-04-27T05:48:28.956Z,668
2023-04-27T05:50:12.656Z,688
2023-04-27T05:51:56.362Z,710
2023-04-27T05:53:40.064Z,722
2023-04-27T05:55:23.771Z,728
2023-04-27T05:57:07.478Z,736
2023-04-27T05:58:51.364Z,738
2023-04-27T06:00:34.902Z,738
2023-04-27T06:02:18.797Z,739
2023-04-27T06:04:02.383Z,738
2023-04-27T06:05:45.986Z,738
2023-04-27T06:07:29.696Z,737
2023-04-27T06:09:13.393Z,738
2023-04-27T06:10:57.098Z,730
2023-04-27T06:12:40.801Z,738
2023-04-27T06:14:24.491Z,738
2023-04-27T06:16:08.229Z,739
2023-04-27T06:17:51.919Z,738
2023-04-27T06:19:35.610Z,738
2023-04-27T06:21:19.310Z,738
2023-04-27T06:23:03.038Z,738
2023-04-27T06:24:46.720Z,739
2023-04-27T06:26:30.512Z,738
2023-04-27T06:28:14.127Z,738
2023-04-27T06:29:57.848Z,730
2023-04-27T06:31:41.556Z,739
2023-04-27T06:33:25.227Z,738
2023-04-27T06:35:08.937Z,738
2023-04-27T06:36:52.637Z,738
2023-04-27T06:38:36.341Z,738
2023-04-27T06:40:20.178Z,739
2023-04-27T06:42:03.755Z,738
2023-04-27T06:43:47.450Z,738
2023-04-27T06:45:31.142Z,738
2023-04-27T06:47:15.035Z,739
2023-04-27T06:48:58.647Z,736
2023-04-27T06:50:42.260Z,738
2023-04-27T06:52:25.955Z,739
2023-04-27T06:54:09.653Z,739
2023-04-27T06:55:53.365Z,738
2023-04-27T06:57:37.067Z,737
2023-04-27T06:59:20.760Z,739
2023-04-27T07:01:04.540Z,739
2023-04-27T07:02:48.316Z,729
2023-04-27T07:04:31.882Z,736
2023-04-27T07:06:15.645Z,738
2023-04-27T07:07:59.377Z,739
2023-04-27T07:09:43.106Z,737
2023-04-27T07:11:26.757Z,737
2023-04-27T07:13:10.375Z,738
2023-04-27T07:14:54.080Z,738
2023-04-27T07:16:37.793Z,738
2023-04-27T07:18:21.538Z,738
2023-04-27T07:20:05.235Z,739
2023-04-27T07:21:48.894Z,737
2023-04-27T07:23:32.605Z,737
2023-04-27T07:25:16.306Z,738
2023-04-27T07:26:59.997Z,738
2023-04-27T07:28:43.695Z,738
2023-04-27T07:30:27.411Z,738
2023-04-27T07:32:11.124Z,737
2023-04-27T07:33:54.821Z,738
2023-04-27T07:35:38.604Z,729
2023-04-27T07:37:22.465Z,738
2023-04-27T07:39:05.924Z,737
2023-04-27T07:40:49.736Z,738
2023-04-27T07:42:33.366Z,739
2023-04-27T07:44:17.050Z,739
2023-04-27T07:46:00.791Z,738
2023-04-27T07:47:44.426Z,738
2023-04-27T07:49:28.202Z,737
2023-04-27T07:51:11.905Z,738
2023-04-27T07:52:55.547Z,737
2023-04-27T07:54:39.356Z,737
2023-04-27T07:56:23.057Z,738
2023-04-27T07:58:06.854Z,739
2023-04-27T07:59:50.365Z,738
2023-04-27T08:01:34.082Z,737
2023-04-27T08:03:17.825Z,737
2023-04-27T08:05:01.451Z,738
2023-04-27T08:06:45.150Z,738
2023-04-27T08:08:28.864Z,728
2023-04-27T08:10:12.556Z,739
2023-04-27T08:11:56.275Z,739
2023-04-27T08:13:40.039Z,738
2023-04-27T08:15:23.738Z,737
2023-04-27T08:17:07.366Z,738
2023-04-27T08:18:51.069Z,738
2023-04-27T08:20:34.776Z,738
2023-04-27T08:22:18.476Z,738
2023-04-27T08:24:02.205Z,738
2023-04-27T08:25:45.884Z,738
2023-04-27T08:27:29.675Z,729
2023-04-27T08:29:13.287Z,737
2023-04-27T08:30:57.043Z,738
2023-04-27T08:32:40.678Z,739
2023-04-27T08:34:24.410Z,738
2023-04-27T08:36:08.106Z,738
2023-04-27T08:37:51.800Z,738
2023-04-27T08:39:35.523Z,738
2023-04-27T08:41:19.205Z,738
2023-04-27T08:43:03.020Z,738
2023-04-27T08:44:46.639Z,738
2023-04-27T08:46:30.307Z,737
2023-04-27T08:48:14.016Z,739
2023-04-27T08:49:57.742Z,738
2023-04-27T08:51:41.443Z,739
2023-04-27T08:53:25.182Z,739
2023-04-27T08:55:08.849Z,740
2023-04-27T08:56:52.549Z,737
2023-04-27T08:58:36.237Z,738
2023-04-27T09:00:19.950Z,729
2023-04-27T09:02:03.666Z,738
2023-04-27T09:03:47.358Z,738
2023-04-27T09:05:31.055Z,738
2023-04-27T09:07:14.753Z,738
2023-04-27T09:08:58.565Z,738
2023-04-27T09:10:42.170Z,738
2023-04-27T09:12:25.989Z,738
2023-04-27T09:14:09.577Z,738
2023-04-27T09:15:53.259Z,740
2023-04-27T09:17:37.065Z,738
2023-04-27T09:19:20.899Z,737
2023-04-27T09:21:04.543Z,738
2023-04-27T09:22:48.245Z,739
2023-04-27T09:24:31.848Z,738
2023-04-27T09:26:15.505Z,738
2023-04-27T09:27:59.329Z,739
2023-04-27T09:29:42.945Z,738
2023-04-27T09:31:26.709Z,738
2023-04-27T09:33:10.316Z,729
2023-04-27T09:34:54.108Z,739
2023-04-27T09:36:37.710Z,739
2023-04-27T09:38:21.564Z,738
2023-04-27T09:40:05.106Z,738
2023-04-27T09:41:48.823Z,739
2023-04-27T09:43:32.509Z,739
2023-04-27T09:45:16.217Z,739
2023-04-27T09:46:59.914Z,737
2023-04-27T09:48:43.606Z,738
2023-04-27T09:50:27.318Z,739
2023-04-27T09:52:11.011Z,738
2023-04-27T09:53:54.728Z,737
2023-04-27T09:55:38.421Z,738
2023-04-27T09:57:22.197Z,738
2023-04-27T09:59:05.963Z,739
2023-04-27T10:00:49.535Z,738
2023-04-27T10:02:33.229Z,738
2023-04-27T10:04:16.936Z,738
2023-04-27T10:06:00.702Z,730
2023-04-27T10:07:44.337Z,738
2023-04-27T10:11:11.783Z,739
2023-04-27T10:12:55.568Z,739
2023-04-27T10:14:39.301Z,738
2023-04-27T10:16:22.849Z,738
2023-04-27T10:18:06.618Z,739
2023-04-27T10:19:50.262Z,738
2023-04-27T10:21:33.976Z,738
2023-04-27T10:25:01.379Z,738
2023-04-27T10:26:45.153Z,739
2023-04-27T10:28:28.811Z,739
2023-04-27T10:30:12.483Z,738
2023-04-27T10:31:56.276Z,740
2023-04-27T10:33:39.972Z,739
2023-04-27T10:35:23.581Z,739
2023-04-27T10:37:07.284Z,738
2023-04-27T10:38:50.989Z,730
2023-04-27T10:40:34.723Z,739
2023-04-27T10:42:18.397Z,738
2023-04-27T10:44:02.095Z,738
2023-04-27T10:45:45.952Z,739
2023-04-27T10:47:29.519Z,739
2023-04-27T10:49:13.276Z,738
2023-04-27T10:50:57.039Z,739
2023-04-27T10:52:40.629Z,739
2023-04-27T10:54:24.310Z,739
2023-04-27T10:56:08.016Z,739
2023-04-27T10:57:51.721Z,739
2023-04-27T10:59:35.450Z,739
2023-04-27T11:01:19.131Z,739
2023-04-27T11:03:02.834Z,738
2023-04-27T11:04:46.598Z,738
2023-04-27T11:06:30.254Z,739
2023-04-27T11:08:13.945Z,739
2023-04-27T11:09:57.710Z,739
2023-04-27T11:11:41.433Z,729
2023-04-27T11:13:25.121Z,738
2023-04-27T11:15:08.769Z,739
2023-04-27T11:16:52.442Z,739
2023-04-27T11:18:36.183Z,739
2023-04-27T11:20:19.852Z,738
2023-04-27T11:22:03.550Z,739
2023-04-27T11:23:47.352Z,739
2023-04-27T11:25:30.958Z,738
2023-04-27T11:27:14.653Z,739
2023-04-27T11:28:58.381Z,739
2023-04-27T11:30:42.069Z,739
2023-04-27T11:32:25.766Z,738
2023-04-27T11:34:09.472Z,739
2023-04-27T11:35:53.163Z,739
2023-04-27T11:37:36.873Z,739
2023-04-27T11:39:20.593Z,739
2023-04-27T11:41:04.456Z,739
2023-04-27T11:42:48.126Z,739
2023-04-27T11:44:31.846Z,738
2023-04-27T11:46:15.544Z,739
2023-04-27T11:47:59.172Z,739
2023-04-27T11:49:42.865Z,739
2023-04-27T11:51:26.678Z,740
2023-04-27T11:53:10.245Z,740
2023-04-27T11:54:53.890Z,739
2023-04-27T11:56:37.599Z,738
2023-04-27T11:58:21.363Z,739
2023-04-27T12:00:04.995Z,739
2023-04-27T12:01:48.744Z,738
2023-04-27T12:03:32.488Z,739
2023-04-27T12:05:16.107Z,739
2023-04-27T12:06:59.964Z,740
2023-04-27T12:08:43.507Z,739
2023-04-27T12:10:27.257Z,739
2023-04-27T12:12:10.932Z,739
2023-04-27T12:13:54.672Z,739
2023-04-27T12:15:38.329Z,739
2023-04-27T12:17:22.101Z,730
2023-04-27T12:19:05.771Z,740
2023-04-27T12:20:49.437Z,739
2023-04-27T12:22:33.208Z,739
2023-04-27T12:24:16.913Z,738
2023-04-27T12:26:00.593Z,740
2023-04-27T12:27:44.244Z,740
2023-04-27T12:29:27.948Z,739
2023-04-27T12:31:11.657Z,739
2023-04-27T12:32:55.346Z,739
2023-04-27T12:34:39.113Z,739
2023-04-27T12:36:22.762Z,738
2023-04-27T12:38:06.461Z,739
2023-04-27T12:39:50.174Z,739
2023-04-27T12:41:33.884Z,739
2023-04-27T12:43:17.612Z,740
2023-04-27T12:45:01.278Z,739
2023-04-27T12:46:44.971Z,739
2023-04-27T12:48:28.680Z,739
2023-04-27T12:50:12.382Z,731
2023-04-27T12:51:56.090Z,739
2023-04-27T12:53:39.861Z,739
2023-04-27T12:55:23.587Z,739
2023-04-27T12:57:07.319Z,739
2023-04-27T12:58:51.021Z,740
2023-04-27T13:00:34.628Z,739
2023-04-27T13:02:18.412Z,740
2023-04-27T13:04:02.053Z,738
2023-04-27T13:05:45.708Z,739
2023-04-27T13:07:29.990Z,739
2023-04-27T13:09:13.114Z,740
2023-04-27T13:10:56.821Z,739
2023-04-27T13:12:40.560Z,739
2023-04-27T13:14:24.237Z,738
2023-04-27T13:16:07.941Z,740
2023-04-27T13:17:51.643Z,739
2023-04-27T13:19:35.355Z,738
2023-04-27T13:21:19.063Z,738
2023-04-27T13:23:02.780Z,740
2023-04-27T13:26:30.164Z,739
2023-04-27T13:28:13.893Z,739
2023-04-27T13:29:57.576Z,740
2023-04-27T13:31:41.330Z,731
2023-04-27T13:33:24.949Z,739
2023-04-27T13:35:08.753Z,739
2023-04-27T13:36:52.376Z,739
2023-04-27T13:38:36.055Z,740
2023-04-27T13:40:19.755Z,740
2023-04-27T13:42:03.468Z,739
2023-04-27T13:43:47.192Z,739
2023-04-27T13:45:30.882Z,739
2023-04-27T13:47:14.561Z,740
2023-04-27T13:48:58.294Z,738
2023-04-27T13:50:42.009Z,739
2023-04-27T13:52:25.755Z,739
2023-04-27T13:54:09.467Z,740
2023-04-27T13:55:53.123Z,739
2023-04-27T13:57:36.788Z,739
2023-04-27T13:59:20.487Z,740
2023-04-27T14:01:04.227Z,740
2023-04-27T14:02:47.943Z,739
2023-04-27T14:04:31.761Z,737
2023-04-27T14:06:15.414Z,740
2023-04-27T14:07:59.016Z,739
2023-04-27T14:09:42.692Z,739
2023-04-27T14:11:26.574Z,739
2023-04-27T14:13:10.122Z,740
2023-04-27T14:14:53.805Z,739
2023-04-27T14:16:37.631Z,739
2023-04-27T14:18:21.297Z,730
2023-04-27T14:20:04.915Z,740
2023-04-27T14:21:48.629Z,740
2023-04-27T14:23:32.407Z,739
2023-04-27T14:25:16.031Z,739
2023-04-27T14:26:59.736Z,741
2023-04-27T14:28:43.438Z,740
2023-04-27T14:30:27.132Z,740
2023-04-27T14:32:10.855Z,731
2023-04-27T14:33:54.567Z,740
2023-04-27T14:35:38.263Z,740
2023-04-27T14:37:21.994Z,740
2023-04-27T14:39:05.663Z,739
2023-04-27T14:40:49.346Z,740
2023-04-27T14:42:33.047Z,740
2023-04-27T14:44:16.807Z,739
2023-04-27T14:46:00.479Z,730
2023-04-27T14:47:44.261Z,740
2023-04-27T14:49:27.863Z,739
2023-04-27T14:51:11.564Z,739
2023-04-27T14:52:55.269Z,739
2023-04-27T14:54:38.972Z,740
2023-04-27T14:56:22.672Z,740
2023-04-27T14:58:06.374Z,739
2023-04-27T14:59:50.079Z,730
2023-04-27T15:01:33.782Z,739
2023-04-27T15:03:17.487Z,739
2023-04-27T15:05:01.179Z,739
2023-04-27T15:06:44.961Z,739
2023-04-27T15:08:28.590Z,740
2023-04-27T15:10:12.289Z,740
2023-04-27T15:11:56.067Z,739
2023-04-27T15:13:39.698Z,738
2023-04-27T15:15:23.401Z,739
2023-04-27T15:17:07.104Z,740
2023-04-27T15:18:50.798Z,739
2023-04-27T15:20:34.509Z,739
2023-04-27T15:22:18.221Z,740
2023-04-27T15:24:01.943Z,740
2023-04-27T15:25:45.636Z,740
2023-04-27T15:27:29.323Z,738
2023-04-27T15:29:13.023Z,740
2023-04-27T15:30:56.732Z,739
2023-04-27T15:32:40.427Z,739
2023-04-27T15:34:24.131Z,738
2023-04-27T15:36:07.832Z,740
2023-04-27T15:37:51.528Z,740
2023-04-27T15:39:35.321Z,739
2023-04-27T15:41:18.934Z,739
2023-04-27T15:43:02.639Z,740
2023-04-27T15:44:46.402Z,739
2023-04-27T15:46:30.045Z,740
2023-04-27T15:48:13.744Z,739
2023-04-27T15:49:57.516Z,740
2023-04-27T15:51:41.153Z,740
2023-04-27T15:53:24.868Z,740
2023-04-27T15:55:08.572Z,733
2023-04-27T15:56:52.263Z,740
2023-04-27T15:58:36.033Z,739
2023-04-27T16:00:19.664Z,739
2023-04-27T16:02:03.364Z,740
2023-04-27T16:03:47.076Z,739
2023-04-27T16:05:30.779Z,740
2023-04-27T16:07:14.481Z,740
2023-04-27T16:08:58.380Z,738
2023-04-27T16:10:41.879Z,740
2023-04-27T16:12:25.592Z,739
2023-04-27T16:14:09.303Z,740
2023-04-27T16:15:52.995Z,739
2023-04-27T16:17:36.832Z,740
2023-04-27T16:19:20.404Z,740
2023-04-27T16:21:04.091Z,739
2023-04-27T16:22:47.841Z,739
2023-04-27T16:24:31.545Z,739
2023-04-27T16:26:15.289Z,740
2023-04-27T16:27:58.910Z,738
2023-04-27T16:29:42.612Z,739
2023-04-27T16:31:26.375Z,739
2023-04-27T16:33:10.001Z,739
2023-04-27T16:34:53.763Z,740
2023-04-27T16:36:37.427Z,739
2023-04-27T16:38:21.121Z,739
2023-04-27T16:40:04.819Z,740
2023-04-27T16:41:48.532Z,731
2023-04-27T16:43:32.233Z,739
2023-04-27T16:45:15.976Z,740
2023-04-27T16:46:59.666Z,740
2023-04-27T16:48:43.333Z,740
2023-04-27T16:50:27.051Z,739
2023-04-27T16:52:10.733Z,739
2023-04-27T16:53:54.441Z,741
2023-04-27T16:55:38.153Z,731
2023-04-27T16:57:21.847Z,739
2023-04-27T16:59:05.549Z,740
2023-04-27T17:00:49.274Z,740
2023-04-27T17:02:32.955Z,740
2023-04-27T17:04:16.675Z,739
2023-04-27T17:06:00.355Z,739
2023-04-27T17:07:44.062Z,740
2023-04-27T17:09:27.761Z,731
2023-04-27T17:11:11.465Z,740
2023-04-27T17:12:55.172Z,740
2023-04-27T17:14:38.870Z,741
2023-04-27T17:16:22.576Z,741
2023-04-27T17:18:06.298Z,739
2023-04-27T17:19:49.983Z,739
2023-04-27T17:21:33.787Z,740
2023-04-27T17:23:17.387Z,739
2023-04-27T17:25:01.159Z,739
2023-04-27T17:26:44.801Z,739
2023-04-27T17:28:28.484Z,740
2023-04-27T17:30:12.199Z,739
2023-04-27T17:31:55.896Z,739
2023-04-27T17:33:39.600Z,739
2023-04-27T17:35:23.301Z,740
2023-04-27T17:37:07.006Z,739
2023-04-27T17:38:50.735Z,739
2023-04-27T17:40:34.425Z,739
2023-04-27T17:42:18.120Z,740
2023-04-27T17:44:01.821Z,740
2023-04-27T17:45:45.529Z,739
2023-04-27T17:47:29.222Z,740
2023-04-27T17:49:12.928Z,732
2023-04-27T17:50:56.644Z,739
2023-04-27T17:52:40.347Z,739
2023-04-27T17:54:24.051Z,740
2023-04-27T17:56:07.742Z,740
2023-04-27T17:57:51.503Z,740
2023-04-27T17:59:35.206Z,739
2023-04-27T18:01:18.845Z,431
2023-04-27T18:03:02.612Z,366
2023-04-27T18:04:46.275Z,327
2023-04-27T18:06:29.961Z,292
2023-04-27T18:08:13.666Z,272
2023-04-27T18:09:57.367Z,250
2023-04-27T18:11:41.072Z,227
2023-04-27T18:13:24.777Z,206
2023-04-27T18:15:08.470Z,181
2023-04-27T18:16:52.183Z,158
2023-04-27T18:18:35.878Z,143
2023-04-27T18:20:19.583Z,129
2023-04-27T18:22:03.327Z,114
2023-04-27T18:23:46.991Z,101
2023-04-27T18:25:30.726Z,86
2023-04-27T18:27:14.467Z,75
2023-04-27T18:28:58.111Z,64
2023-04-27T18:30:41.816Z,63
2023-04-27T18:32:25.504Z,55
2023-04-27T18:34:09.210Z,49
2023-04-27T18:35:52.936Z,43
2023-04-27T18:37:36.624Z,40
2023-04-27T18:39:20.374Z,37
2023-04-27T18:41:04.017Z,36
2023-04-27T18:42:47.718Z,33
2023-04-27T18:44:31.481Z,31
2023-04-27T18:46:15.109Z,29
2023-04-27T18:47:58.816Z,28
2023-04-27T18:49:42.602Z,26
2023-04-27T18:51:26.460Z,24
2023-04-27T18:53:10.053Z,22
2023-04-27T18:54:53.788Z,22
2023-04-27T18:56:37.326Z,21
2023-04-27T18:58:21.201Z,21
2023-04-27T19:00:04.872Z,20
2023-04-27T19:01:48.566Z,20
2023-04-27T19:03:32.158Z,20
2023-04-27T19:05:16.051Z,20
2023-04-27T19:06:59.786Z,20
2023-04-27T19:08:43.373Z,20
2023-04-27T19:10:27.096Z,20
2023-04-27T19:12:10.769Z,20
2023-04-27T19:13:54.430Z,20
2023-04-27T19:15:38.064Z,22
2023-04-27T19:17:21.748Z,20
2023-04-27T19:19:05.601Z,20
2023-04-27T19:20:49.183Z,20
2023-04-27T19:22:32.872Z,20
2023-04-27T19:24:16.571Z,20
2023-04-27T19:26:00.332Z,20
2023-04-27T19:27:43.960Z,20
2023-04-27T19:29:27.673Z,10
2023-04-27T19:31:11.367Z,1
2023-04-27T19:32:55.073Z,1
2023-04-27T19:34:38.786Z,1
2023-04-27T19:36:22.483Z,1
2023-04-27T19:38:06.180Z,2
2023-04-27T19:39:49.883Z,1
2023-04-27T19:41:33.594Z,1
2023-04-27T19:43:17.290Z,1
2023-04-27T19:45:00.982Z,2
2023-04-27T19:46:44.694Z,0
2023-04-27T19:48:28.398Z,1
2023-04-27T19:50:12.101Z,1
2023-04-27T19:51:55.808Z,2
2023-04-27T19:53:39.498Z,2
2023-04-27T19:55:23.214Z,2
2023-04-27T19:57:06.907Z,9
2023-04-27T19:58:50.612Z,11
2023-04-27T20:00:34.315Z,11
2023-04-27T20:02:18.024Z,11
2023-04-27T20:04:01.719Z,10
2023-04-27T20:05:45.420Z,10
2023-04-27T20:07:29.134Z,3
2023-04-27T20:09:12.826Z,1
2023-04-27T20:10:56.533Z,1
2023-04-27T20:12:40.235Z,2
2023-04-27T20:14:23.936Z,1
2023-04-27T20:16:07.641Z,1
2023-04-27T20:17:51.334Z,1
2023-04-27T20:21:18.733Z,0
2023-04-27T20:23:02.456Z,0
2023-04-27T20:24:46.150Z,1
2023-04-27T20:26:29.849Z,1
2023-04-27T20:28:13.562Z,2
2023-04-27T20:29:57.264Z,1
2023-04-27T20:31:40.957Z,1
2023-04-27T20:33:24.661Z,1
2023-04-27T20:35:08.356Z,1
2023-04-27T20:36:52.070Z,1
2023-04-27T20:38:35.772Z,1
2023-04-27T20:40:19.462Z,1
2023-04-27T20:42:03.171Z,1
2023-04-27T20:43:46.866Z,1
2023-04-27T20:45:30.581Z,1
2023-04-27T20:47:14.280Z,1
2023-04-27T20:48:57.979Z,2
2023-04-27T20:50:41.682Z,10
2023-04-27T20:52:25.387Z,11
2023-04-27T20:54:09.086Z,11
2023-04-27T20:55:52.793Z,11
2023-04-27T20:57:36.496Z,10
2023-04-27T20:59:20.194Z,2
2023-04-27T21:01:03.907Z,2
2023-04-27T21:02:47.596Z,3
2023-04-27T21:04:31.316Z,2
2023-04-27T21:06:15.004Z,2
2023-04-27T21:07:58.713Z,2
2023-04-27T21:09:42.415Z,2
2023-04-27T21:11:26.111Z,2
2023-04-27T21:13:09.822Z,2
2023-04-27T21:14:53.517Z,2
2023-04-27T21:16:37.222Z,3
2023-04-27T21:18:20.929Z,2
2023-04-27T21:20:04.630Z,3
2023-04-27T21:21:48.330Z,2
2023-04-27T21:23:32.042Z,2
2023-04-27T21:25:15.732Z,2
2023-04-27T21:26:59.440Z,10
2023-04-27T21:28:43.146Z,2
2023-04-27T21:30:26.838Z,3
2023-04-27T21:32:10.556Z,2
2023-04-27T21:33:54.253Z,2
2023-04-27T21:35:37.949Z,3
2023-04-27T21:37:21.654Z,2
2023-04-27T21:39:05.355Z,3
2023-04-27T21:40:49.062Z,3
2023-04-27T21:42:32.756Z,2
2023-04-27T21:44:16.455Z,2
2023-04-27T21:46:00.163Z,3
2023-04-27T21:47:43.874Z,11
2023-04-27T21:49:27.563Z,10
2023-04-27T21:51:11.265Z,11
2023-04-27T21:52:54.973Z,11
2023-04-27T21:54:38.668Z,2
2023-04-27T21:56:22.377Z,2
2023-04-27T21:58:06.068Z,2
2023-04-27T21:59:49.790Z,2
2023-04-27T22:01:33.492Z,2
2023-04-27T22:03:17.180Z,2
2023-04-27T22:05:00.882Z,3
2023-04-27T22:06:44.592Z,2
2023-04-27T22:08:28.287Z,2
2023-04-27T22:10:11.994Z,2
2023-04-27T22:11:55.698Z,2
2023-04-27T22:13:39.394Z,2
2023-04-27T22:15:23.106Z,2
2023-04-27T22:17:06.809Z,2
2023-04-27T22:18:50.530Z,2
2023-04-27T22:20:34.233Z,2
2023-04-27T22:22:17.928Z,3
2023-04-27T22:24:01.615Z,2
2023-04-27T22:25:45.330Z,11
2023-04-27T22:27:29.034Z,10
2023-04-27T22:29:12.737Z,11
2023-04-27T22:30:56.430Z,10
2023-04-27T22:32:40.141Z,12
2023-04-27T22:34:23.833Z,11
2023-04-27T22:36:07.542Z,2
2023-04-27T22:37:51.249Z,2
2023-04-27T22:39:34.950Z,2
2023-04-27T22:41:18.644Z,2
2023-04-27T22:43:02.372Z,2
2023-04-27T22:44:46.055Z,2
2023-04-27T22:46:29.762Z,2
2023-04-27T22:48:13.465Z,2
2023-04-27T22:49:57.157Z,3
2023-04-27T22:51:40.866Z,2
2023-04-27T22:53:24.574Z,2
2023-04-27T22:55:08.274Z,2
2023-04-27T22:56:51.972Z,2
2023-04-27T22:58:35.678Z,2
2023-04-27T23:00:19.418Z,10
2023-04-27T23:02:03.086Z,11
2023-04-27T23:03:46.777Z,10
2023-04-27T23:05:30.484Z,2
2023-04-27T23:07:14.187Z,3
2023-04-27T23:08:57.883Z,2
2023-04-27T23:10:41.595Z,2
2023-04-27T23:12:25.298Z,3
2023-04-27T23:14:08.985Z,2
2023-04-27T23:17:36.401Z,2
2023-04-27T23:19:20.104Z,2
2023-04-27T23:21:03.804Z,2
2023-04-27T23:22:47.503Z,1
2023-04-27T23:24:31.205Z,1
2023-04-27T23:26:14.912Z,3
2023-04-27T23:27:58.615Z,2
2023-04-27T23:29:42.327Z,2
2023-04-27T23:31:26.016Z,2
2023-04-27T23:33:09.728Z,2
2023-04-27T23:34:53.422Z,2
2023-04-27T23:36:37.121Z,2
2023-04-27T23:38:20.832Z,3
2023-04-27T23:40:04.528Z,3
2023-04-27T23:41:48.238Z,2
2023-04-27T23:43:31.930Z,2
2023-04-27T23:45:15.639Z,1
2023-04-27T23:46:59.345Z,2
2023-04-27T23:48:43.060Z,2
2023-04-27T23:50:26.764Z,2
2023-04-27T23:52:10.462Z,2
2023-04-27T23:53:54.157Z,2
2023-04-27T23:55:37.859Z,2
2023-04-27T23:57:21.561Z,2
2023-04-27T23:59:05.259Z,2
